createdAt,value
2019-02-25T00:00:20.248Z,100.00
2019-02-25T00:02:48.519Z,100.00
2019-02-25T00:05:16.801Z,100.00
2019-02-25T00:07:45.078Z,100.00
2019-02-25T00:10:13.471Z,100.00
2019-02-25T00:12:41.711Z,100.00
2019-02-25T00:15:11.609Z,100.00
2019-02-25T00:17:40.599Z,100.00
2019-02-25T00:20:12.606Z,100.00
2019-02-25T00:22:40.996Z,100.00
2019-02-25T00:25:10.883Z,100.00
2019-02-25T00:27:39.173Z,100.00
2019-02-25T00:30:12.275Z,100.00
2019-02-25T00:32:40.615Z,100.00
2019-02-25T00:35:08.899Z,100.00
2019-02-25T00:37:37.219Z,100.00
2019-02-25T00:40:07.588Z,100.00
2019-02-25T00:42:35.849Z,100.00
2019-02-25T00:45:08.811Z,100.00
2019-02-25T00:47:37.162Z,100.00
2019-02-25T00:50:11.799Z,100.00
2019-02-25T00:52:40.086Z,100.00
2019-02-25T00:55:09.183Z,100.00
2019-02-25T00:57:39.095Z,100.00
2019-02-25T01:00:10.583Z,100.00
2019-02-25T01:02:38.848Z,100.00
2019-02-25T01:05:07.686Z,100.00
2019-02-25T01:07:35.975Z,100.00
2019-02-25T01:10:07.218Z,100.00
2019-02-25T01:12:35.492Z,100.00
2019-02-25T01:15:04.565Z,100.00
2019-02-25T01:17:32.826Z,100.00
2019-02-25T01:20:01.161Z,100.00
2019-02-25T01:22:29.446Z,100.00
2019-02-25T01:24:57.894Z,100.00
2019-02-25T01:27:26.170Z,100.00
2019-02-25T01:29:54.486Z,100.00
2019-02-25T01:32:22.831Z,100.00
2019-02-25T01:34:51.118Z,100.00
2019-02-25T01:37:19.409Z,100.00
2019-02-25T01:39:47.886Z,100.00
2019-02-25T01:42:16.233Z,100.00
2019-02-25T01:44:44.603Z,100.00
2019-02-25T01:47:12.896Z,100.00
2019-02-25T01:49:41.216Z,100.00
2019-02-25T01:52:09.551Z,100.00
2019-02-25T01:54:37.927Z,100.00
2019-02-25T01:57:06.246Z,100.00
2019-02-25T01:59:34.619Z,100.00
2019-02-25T02:02:02.934Z,100.00
2019-02-25T02:04:31.259Z,100.00
2019-02-25T02:06:59.569Z,100.00
2019-02-25T02:09:27.984Z,100.00
2019-02-25T02:11:56.259Z,100.00
2019-02-25T02:14:24.564Z,100.00
2019-02-25T02:16:52.831Z,100.00
2019-02-25T02:19:21.282Z,100.00
2019-02-25T02:21:49.563Z,100.00
2019-02-25T02:24:17.859Z,100.00
2019-02-25T02:26:46.115Z,100.00
2019-02-25T02:29:14.471Z,100.00
2019-02-25T02:31:42.783Z,100.00
2019-02-25T02:34:11.084Z,100.00
2019-02-25T02:36:39.367Z,100.00
2019-02-25T02:39:07.723Z,100.00
2019-02-25T02:42:12.904Z,100.00
2019-02-25T02:44:42.410Z,100.00
2019-02-25T02:47:28.745Z,100.00
2019-02-25T02:49:59.591Z,100.00
2019-02-25T02:52:28.059Z,100.00
2019-02-25T02:55:06.165Z,100.00
2019-02-25T02:57:34.455Z,100.00
2019-02-25T03:00:02.783Z,100.00
2019-02-25T03:02:31.084Z,100.00
2019-02-25T03:04:59.338Z,100.00
2019-02-25T03:07:27.675Z,100.00
2019-02-25T03:09:56.114Z,100.00
2019-02-25T03:12:24.372Z,100.00
2019-02-25T03:14:52.696Z,100.00
2019-02-25T03:17:20.938Z,100.00
2019-02-25T03:19:49.259Z,100.00
2019-02-25T03:22:17.572Z,100.00
2019-02-25T03:24:45.934Z,100.00
2019-02-25T03:27:14.229Z,100.00
2019-02-25T03:29:42.526Z,100.00
2019-02-25T03:32:10.845Z,100.00
2019-02-25T03:34:39.140Z,100.00
2019-02-25T03:37:07.450Z,100.00
2019-02-25T03:39:35.722Z,100.00
2019-02-25T03:42:04.047Z,100.00
2019-02-25T03:44:32.373Z,100.00
2019-02-25T03:47:00.653Z,100.00
2019-02-25T03:49:28.964Z,100.00
2019-02-25T03:51:57.253Z,100.00
2019-02-25T03:54:25.525Z,100.00
2019-02-25T03:56:53.883Z,100.00
2019-02-25T03:59:22.205Z,100.00
2019-02-25T04:01:50.528Z,100.00
2019-02-25T04:04:18.847Z,100.00
2019-02-25T04:06:47.127Z,100.00
2019-02-25T04:09:15.478Z,100.00
2019-02-25T04:11:43.872Z,100.00
2019-02-25T04:14:12.189Z,100.00
2019-02-25T04:16:40.478Z,100.00
2019-02-25T04:19:08.774Z,100.00
2019-02-25T04:21:37.043Z,100.00
2019-02-25T04:24:05.328Z,100.00
2019-02-25T04:26:33.669Z,100.00
2019-02-25T04:29:01.958Z,100.00
2019-02-25T04:31:30.321Z,100.00
2019-02-25T04:33:58.689Z,100.00
2019-02-25T04:36:27.001Z,100.00
2019-02-25T04:39:05.152Z,100.00
2019-02-25T04:41:33.446Z,100.00
2019-02-25T04:44:01.726Z,100.00
2019-02-25T04:46:29.999Z,100.00
2019-02-25T04:48:58.291Z,100.00
2019-02-25T04:51:26.637Z,100.00
2019-02-25T04:53:54.892Z,100.00
2019-02-25T04:56:25.309Z,100.00
2019-02-25T04:58:53.174Z,100.00
2019-02-25T05:01:21.433Z,100.00
2019-02-25T05:03:49.736Z,100.00
2019-02-25T05:06:17.986Z,100.00
2019-02-25T05:08:46.247Z,100.00
2019-02-25T05:11:14.515Z,100.00
2019-02-25T05:13:42.866Z,100.00
2019-02-25T05:16:11.132Z,100.00
2019-02-25T05:18:39.403Z,100.00
2019-02-25T05:21:07.686Z,100.00
2019-02-25T05:23:35.964Z,100.00
2019-02-25T05:26:04.247Z,100.00
2019-02-25T05:28:32.522Z,100.00
2019-02-25T05:31:00.792Z,100.00
2019-02-25T05:33:29.040Z,100.00
2019-02-25T05:35:57.327Z,100.00
2019-02-25T05:38:25.596Z,100.00
2019-02-25T05:40:53.864Z,100.00
2019-02-25T05:43:22.202Z,100.00
2019-02-25T05:45:50.474Z,100.00
2019-02-25T05:48:18.786Z,100.00
2019-02-25T05:50:47.080Z,100.00
2019-02-25T05:53:15.382Z,100.00
2019-02-25T05:55:43.663Z,100.00
2019-02-25T05:58:12.007Z,100.00
2019-02-25T06:00:40.283Z,100.00
2019-02-25T06:03:08.625Z,100.00
2019-02-25T06:05:36.905Z,100.00
2019-02-25T06:08:05.201Z,100.00
2019-02-25T06:10:33.464Z,100.00
2019-02-25T06:13:01.736Z,100.00
2019-02-25T06:15:30.078Z,100.00
2019-02-25T06:17:58.387Z,100.00
2019-02-25T06:20:26.662Z,100.00
2019-02-25T06:22:54.947Z,100.00
2019-02-25T06:25:23.233Z,100.00
2019-02-25T06:27:51.522Z,100.00
2019-02-25T06:30:21.981Z,100.00
2019-02-25T06:32:50.248Z,100.00
2019-02-25T06:35:18.620Z,100.00
2019-02-25T06:37:46.893Z,100.00
2019-02-25T06:40:20.059Z,100.00
2019-02-25T06:42:48.377Z,100.00
2019-02-25T06:45:22.549Z,100.00
2019-02-25T06:47:50.811Z,100.00
2019-02-25T06:50:19.102Z,100.00
2019-02-25T06:52:47.378Z,100.00
2019-02-25T06:55:16.799Z,100.00
2019-02-25T06:57:45.157Z,100.00
2019-02-25T07:00:17.903Z,100.00
2019-02-25T07:02:46.202Z,100.00
2019-02-25T07:05:27.854Z,100.00
2019-02-25T07:08:14.339Z,100.00
2019-02-25T07:11:00.443Z,100.00
2019-02-25T07:13:36.372Z,100.00
2019-02-25T07:16:21.607Z,100.00
2019-02-25T07:19:07.954Z,100.00
2019-02-25T07:21:53.132Z,100.00
2019-02-25T07:24:28.977Z,100.00
2019-02-25T07:27:01.754Z,100.00
2019-02-25T07:29:37.554Z,100.00
2019-02-25T07:32:13.047Z,100.00
2019-02-25T07:35:00.735Z,100.00
2019-02-25T07:37:45.257Z,100.00
2019-02-25T07:40:15.289Z,100.00
2019-02-25T07:43:03.570Z,100.00
2019-02-25T07:45:42.320Z,100.00
2019-02-25T07:48:18.292Z,100.00
2019-02-25T07:50:53.972Z,100.00
2019-02-25T07:53:23.918Z,100.00
2019-02-25T07:56:02.270Z,100.00
2019-02-25T07:58:31.216Z,100.00
2019-02-25T08:01:06.970Z,100.00
2019-02-25T08:03:36.965Z,100.00
2019-02-25T08:06:18.687Z,100.00
2019-02-25T08:08:51.163Z,100.00
2019-02-25T08:11:39.127Z,100.00
2019-02-25T08:14:09.045Z,100.00
2019-02-25T08:16:46.587Z,100.00
2019-02-25T08:19:16.519Z,100.00
2019-02-25T08:21:55.285Z,100.00
2019-02-25T08:24:30.530Z,100.00
2019-02-25T08:26:56.834Z,100.00
2019-02-25T08:29:29.712Z,100.00
2019-02-25T08:31:59.654Z,100.00
2019-02-25T08:34:35.081Z,100.00
2019-02-25T08:37:26.235Z,100.00
2019-02-25T08:40:30.861Z,100.00
2019-02-25T08:43:11.816Z,100.00
2019-02-25T08:45:57.564Z,100.00
2019-02-25T08:48:36.548Z,100.00
2019-02-25T08:51:04.910Z,96.59
2019-02-25T08:53:33.160Z,92.40
2019-02-25T08:56:01.437Z,92.95
2019-02-25T08:58:29.695Z,85.29
2019-02-25T09:00:57.953Z,80.20
2019-02-25T09:03:26.208Z,75.31
2019-02-25T09:05:54.495Z,69.02
2019-02-25T09:08:22.766Z,69.25
2019-02-25T09:10:51.018Z,64.84
2019-02-25T09:13:19.275Z,63.71
2019-02-25T09:15:47.579Z,61.81
2019-02-25T09:18:15.793Z,60.47
2019-02-25T09:20:44.053Z,59.30
2019-02-25T09:23:12.310Z,55.81
2019-02-25T09:25:40.594Z,55.21
2019-02-25T09:28:08.849Z,54.46
2019-02-25T09:30:37.104Z,52.91
2019-02-25T09:33:05.408Z,51.04
2019-02-25T09:35:33.624Z,49.96
2019-02-25T09:38:01.956Z,49.17
2019-02-25T09:40:30.216Z,49.41
2019-02-25T09:42:58.476Z,45.43
2019-02-25T09:45:26.755Z,45.63
2019-02-25T09:47:55.015Z,43.98
2019-02-25T09:50:23.697Z,43.63
2019-02-25T09:52:51.977Z,42.64
2019-02-25T09:55:20.243Z,40.40
2019-02-25T09:57:48.581Z,39.59
2019-02-25T10:00:23.146Z,40.76
2019-02-25T10:02:51.400Z,38.84
2019-02-25T10:05:19.667Z,35.99
2019-02-25T10:07:47.918Z,38.30
2019-02-25T10:10:18.450Z,36.62
2019-02-25T10:12:46.709Z,36.63
2019-02-25T10:15:26.121Z,36.70
2019-02-25T10:17:54.402Z,36.12
2019-02-25T10:20:22.662Z,33.05
2019-02-25T10:22:50.922Z,34.00
2019-02-25T10:25:19.218Z,31.98
2019-02-25T10:27:49.422Z,33.42
2019-02-25T10:30:18.123Z,33.25
2019-02-25T10:32:46.372Z,31.65
2019-02-25T10:35:18.031Z,29.96
2019-02-25T10:37:46.295Z,29.70
2019-02-25T10:40:15.380Z,28.62
2019-02-25T10:42:44.897Z,28.45
2019-02-25T10:45:24.869Z,27.44
2019-02-25T10:47:58.296Z,26.80
2019-02-25T10:50:23.136Z,27.29
2019-02-25T10:52:51.388Z,26.48
2019-02-25T10:55:32.109Z,26.66
2019-02-25T10:58:02.020Z,26.35
2019-02-25T11:00:30.367Z,25.57
2019-02-25T11:02:58.620Z,25.79
2019-02-25T11:05:29.942Z,25.27
2019-02-25T11:07:56.947Z,23.48
2019-02-25T11:10:29.279Z,25.64
2019-02-25T11:12:58.177Z,24.64
2019-02-25T11:15:28.301Z,24.44
2019-02-25T11:17:56.577Z,25.00
2019-02-25T11:20:24.831Z,24.54
2019-02-25T11:22:53.090Z,23.92
2019-02-25T11:25:23.135Z,24.88
2019-02-25T11:27:51.346Z,24.61
2019-02-25T11:30:21.548Z,24.04
2019-02-25T11:32:51.185Z,23.97
2019-02-25T11:35:19.572Z,24.92
2019-02-25T11:37:49.575Z,24.68
2019-02-25T11:40:17.973Z,25.80
2019-02-25T11:42:46.243Z,26.12
2019-02-25T11:45:18.346Z,26.08
2019-02-25T11:47:46.616Z,26.32
2019-02-25T11:50:16.125Z,26.85
2019-02-25T11:52:44.377Z,26.93
2019-02-25T11:55:14.403Z,28.05
2019-02-25T11:57:42.711Z,27.79
2019-02-25T12:00:20.168Z,27.36
2019-02-25T12:02:48.464Z,27.29
2019-02-25T12:05:17.857Z,27.71
2019-02-25T12:07:46.101Z,28.43
2019-02-25T12:10:15.511Z,27.61
2019-02-25T12:12:43.757Z,27.98
2019-02-25T12:15:17.038Z,27.50
2019-02-25T12:17:45.304Z,29.08
2019-02-25T12:20:14.351Z,29.10
2019-02-25T12:22:42.613Z,30.25
2019-02-25T12:25:16.062Z,30.65
2019-02-25T12:27:44.320Z,29.72
2019-02-25T12:30:18.202Z,29.58
2019-02-25T12:32:46.458Z,30.59
2019-02-25T12:35:14.719Z,31.29
2019-02-25T12:37:43.000Z,29.73
2019-02-25T12:40:13.216Z,30.10
2019-02-25T12:42:41.500Z,31.12
2019-02-25T12:45:11.577Z,29.11
2019-02-25T12:47:39.822Z,30.86
2019-02-25T12:50:10.622Z,30.53
2019-02-25T12:52:38.884Z,29.94
2019-02-25T12:55:09.881Z,30.21
2019-02-25T12:57:38.166Z,30.95
2019-02-25T13:00:18.276Z,31.86
2019-02-25T13:02:46.538Z,31.07
2019-02-25T13:05:22.457Z,31.58
2019-02-25T13:07:50.703Z,31.87
2019-02-25T13:10:19.196Z,31.02
2019-02-25T13:12:47.458Z,31.60
2019-02-25T13:15:20.027Z,32.61
2019-02-25T13:17:48.321Z,31.24
2019-02-25T13:20:16.590Z,31.16
2019-02-25T13:22:44.928Z,31.70
2019-02-25T13:25:21.774Z,32.15
2019-02-25T13:27:51.829Z,33.16
2019-02-25T13:30:20.067Z,32.95
2019-02-25T13:32:48.328Z,31.94
2019-02-25T13:35:16.576Z,33.23
2019-02-25T13:37:45.067Z,34.07
2019-02-25T13:40:15.631Z,34.95
2019-02-25T13:42:44.117Z,34.24
2019-02-25T13:45:16.689Z,33.71
2019-02-25T13:47:45.005Z,34.29
2019-02-25T13:50:14.725Z,35.24
2019-02-25T13:52:48.552Z,34.46
2019-02-25T13:55:13.639Z,34.12
2019-02-25T13:57:41.916Z,35.30
2019-02-25T14:00:18.602Z,35.18
2019-02-25T14:02:47.015Z,35.29
2019-02-25T14:05:15.480Z,35.78
2019-02-25T14:07:43.829Z,35.76
2019-02-25T14:10:14.192Z,35.95
2019-02-25T14:12:42.505Z,35.39
2019-02-25T14:15:17.183Z,36.41
2019-02-25T14:17:45.531Z,37.85
2019-02-25T14:20:16.754Z,38.05
2019-02-25T14:22:45.090Z,36.22
2019-02-25T14:25:16.183Z,36.78
2019-02-25T14:27:45.480Z,37.39
2019-02-25T14:30:16.920Z,38.13
2019-02-25T14:32:45.211Z,36.80
2019-02-25T14:35:13.579Z,38.76
2019-02-25T14:37:41.926Z,39.06
2019-02-25T14:40:16.702Z,37.65
2019-02-25T14:42:46.885Z,39.35
2019-02-25T14:45:14.725Z,39.22
2019-02-25T14:47:44.557Z,38.61
2019-02-25T14:50:19.637Z,39.04
2019-02-25T14:52:48.100Z,40.55
2019-02-25T14:55:16.358Z,40.20
2019-02-25T14:57:44.823Z,41.65
2019-02-25T15:00:26.808Z,41.81
2019-02-25T15:02:54.819Z,41.90
2019-02-25T15:05:24.219Z,41.94
2019-02-25T15:07:53.366Z,42.97
2019-02-25T15:10:26.624Z,44.59
2019-02-25T15:12:56.497Z,44.82
2019-02-25T15:15:23.160Z,44.44
2019-02-25T15:17:52.753Z,42.60
2019-02-25T15:20:23.341Z,43.10
2019-02-25T15:22:51.987Z,44.15
2019-02-25T15:25:20.787Z,44.63
2019-02-25T15:27:49.219Z,43.39
2019-02-25T15:30:21.107Z,44.65
2019-02-25T15:32:55.761Z,45.67
2019-02-25T15:35:20.548Z,45.41
2019-02-25T15:37:50.384Z,44.43
2019-02-25T15:40:21.012Z,46.28
2019-02-25T15:43:00.883Z,45.28
2019-02-25T15:45:31.076Z,45.31
2019-02-25T15:48:00.887Z,46.38
2019-02-25T15:50:29.184Z,46.73
2019-02-25T15:53:00.761Z,48.62
2019-02-25T15:55:27.714Z,49.08
2019-02-25T15:57:56.046Z,49.16
2019-02-25T16:00:27.278Z,49.21
2019-02-25T16:02:56.144Z,48.66
2019-02-25T16:05:27.427Z,50.49
2019-02-25T16:07:58.009Z,51.33
2019-02-25T16:10:27.288Z,52.52
2019-02-25T16:12:57.658Z,50.68
2019-02-25T16:15:26.000Z,50.86
2019-02-25T16:17:54.297Z,51.14
2019-02-25T16:20:26.072Z,52.72
2019-02-25T16:22:56.333Z,53.98
2019-02-25T16:25:27.139Z,54.75
2019-02-25T16:27:55.534Z,55.70
2019-02-25T16:30:25.809Z,56.43
2019-02-25T16:32:53.813Z,57.92
2019-02-25T16:35:22.077Z,58.21
2019-02-25T16:37:50.728Z,59.79
2019-02-25T16:40:24.453Z,61.80
2019-02-25T16:42:50.759Z,62.22
2019-02-25T16:45:20.233Z,62.68
2019-02-25T16:47:48.524Z,63.54
2019-02-25T16:50:18.541Z,64.23
2019-02-25T16:52:47.838Z,65.83
2019-02-25T16:55:22.713Z,68.38
2019-02-25T16:57:51.762Z,70.74
2019-02-25T17:00:29.367Z,71.34
2019-02-25T17:02:59.252Z,73.71
2019-02-25T17:05:26.041Z,75.42
2019-02-25T17:07:56.083Z,76.79
2019-02-25T17:10:27.096Z,78.57
2019-02-25T17:12:55.627Z,79.10
2019-02-25T17:15:26.329Z,81.75
2019-02-25T17:17:54.071Z,82.73
2019-02-25T17:20:22.923Z,83.44
2019-02-25T17:22:51.358Z,84.74
2019-02-25T17:25:19.880Z,86.02
2019-02-25T17:27:48.139Z,85.17
2019-02-25T17:30:24.059Z,85.82
2019-02-25T17:32:52.537Z,86.27
2019-02-25T17:35:23.568Z,88.51
2019-02-25T17:37:53.414Z,89.86
2019-02-25T17:40:21.532Z,87.92
2019-02-25T17:42:51.721Z,89.40
2019-02-25T17:45:29.352Z,91.46
2019-02-25T17:47:58.336Z,93.14
2019-02-25T17:50:27.041Z,92.31
2019-02-25T17:52:55.299Z,93.87
2019-02-25T17:55:29.371Z,91.25
2019-02-25T17:57:59.197Z,93.89
2019-02-25T18:00:39.302Z,95.68
2019-02-25T18:03:07.206Z,93.65
2019-02-25T18:05:36.373Z,98.75
2019-02-25T18:08:07.631Z,97.21
2019-02-25T18:10:35.788Z,98.07
2019-02-25T18:13:06.741Z,97.48
2019-02-25T18:15:34.119Z,99.93
2019-02-25T18:18:02.384Z,100.00
2019-02-25T18:20:30.642Z,100.00
2019-02-25T18:22:59.175Z,100.00
2019-02-25T18:25:27.461Z,100.00
2019-02-25T18:27:55.789Z,100.00
2019-02-25T18:30:30.264Z,100.00
2019-02-25T18:33:00.989Z,100.00
2019-02-25T18:35:28.956Z,100.00
2019-02-25T18:37:58.625Z,100.00
2019-02-25T18:40:27.894Z,100.00
2019-02-25T18:42:58.011Z,100.00
2019-02-25T18:45:26.146Z,100.00
2019-02-25T18:47:54.423Z,100.00
2019-02-25T18:50:24.047Z,100.00
2019-02-25T18:52:54.633Z,100.00
2019-02-25T18:55:25.439Z,100.00
2019-02-25T18:57:54.859Z,100.00
2019-02-25T19:00:28.422Z,100.00
2019-02-25T19:02:58.302Z,100.00
2019-02-25T19:05:27.664Z,100.00
2019-02-25T19:07:57.667Z,100.00
2019-02-25T19:10:26.873Z,100.00
2019-02-25T19:12:56.371Z,100.00
2019-02-25T19:15:25.175Z,100.00
2019-02-25T19:17:54.404Z,100.00
2019-02-25T19:20:22.781Z,100.00
2019-02-25T19:22:51.038Z,100.00
2019-02-25T19:25:20.798Z,100.00
2019-02-25T19:27:50.055Z,100.00
2019-02-25T19:30:19.829Z,100.00
2019-02-25T19:32:49.563Z,100.00
2019-02-25T19:35:17.866Z,100.00
2019-02-25T19:37:46.783Z,100.00
2019-02-25T19:40:24.418Z,100.00
2019-02-25T19:42:54.202Z,100.00
2019-02-25T19:45:22.663Z,100.00
2019-02-25T19:47:51.000Z,100.00
2019-02-25T19:50:21.081Z,100.00
2019-02-25T19:52:49.355Z,100.00
2019-02-25T19:55:20.245Z,100.00
2019-02-25T19:57:47.604Z,100.00
2019-02-25T20:00:22.377Z,100.00
2019-02-25T20:02:50.468Z,100.00
2019-02-25T20:05:19.761Z,100.00
2019-02-25T20:07:48.889Z,100.00
2019-02-25T20:10:17.315Z,100.00
2019-02-25T20:12:45.617Z,100.00
2019-02-25T20:15:21.245Z,100.00
2019-02-25T20:17:50.654Z,100.00
2019-02-25T20:20:19.404Z,100.00
2019-02-25T20:22:47.658Z,100.00
2019-02-25T20:25:18.820Z,100.00
2019-02-25T20:27:46.665Z,100.00
2019-02-25T20:30:19.633Z,100.00
2019-02-25T20:32:48.769Z,100.00
2019-02-25T20:35:22.242Z,100.00
2019-02-25T20:37:52.888Z,100.00
2019-02-25T20:40:21.820Z,100.00
2019-02-25T20:42:51.201Z,100.00
2019-02-25T20:45:26.199Z,100.00
2019-02-25T20:47:57.185Z,100.00
2019-02-25T20:50:26.138Z,100.00
2019-02-25T20:52:56.003Z,100.00
2019-02-25T20:55:24.994Z,100.00
2019-02-25T20:57:55.258Z,100.00
2019-02-25T21:00:25.115Z,100.00
2019-02-25T21:02:53.407Z,100.00
2019-02-25T21:05:22.795Z,100.00
2019-02-25T21:07:53.366Z,100.00
2019-02-25T21:10:22.734Z,100.00
2019-02-25T21:12:52.984Z,100.00
2019-02-25T21:15:21.844Z,100.00
2019-02-25T21:17:51.965Z,100.00
2019-02-25T21:20:21.494Z,100.00
2019-02-25T21:22:52.468Z,100.00
2019-02-25T21:25:24.417Z,100.00
2019-02-25T21:27:50.516Z,100.00
2019-02-25T21:30:19.907Z,100.00
2019-02-25T21:32:50.150Z,100.00
2019-02-25T21:35:19.460Z,100.00
2019-02-25T21:37:50.020Z,100.00
2019-02-25T21:40:22.721Z,100.00
2019-02-25T21:42:53.884Z,100.00
2019-02-25T21:45:24.494Z,100.00
2019-02-25T21:47:54.204Z,100.00
2019-02-25T21:50:26.261Z,100.00
2019-02-25T21:52:52.733Z,100.00
2019-02-25T21:55:23.173Z,100.00
2019-02-25T21:57:54.362Z,100.00
2019-02-25T22:00:27.011Z,100.00
2019-02-25T22:02:56.389Z,100.00
2019-02-25T22:05:24.877Z,100.00
2019-02-25T22:07:55.376Z,100.00
2019-02-25T22:10:23.240Z,100.00
2019-02-25T22:12:51.519Z,100.00
2019-02-25T22:15:22.124Z,100.00
2019-02-25T22:17:53.039Z,100.00
2019-02-25T22:20:22.539Z,100.00
2019-02-25T22:22:54.550Z,100.00
2019-02-25T22:25:21.408Z,100.00
2019-02-25T22:27:49.684Z,100.00
2019-02-25T22:30:18.189Z,100.00
2019-02-25T22:32:46.628Z,100.00
2019-02-25T22:35:15.258Z,100.00
2019-02-25T22:37:46.737Z,100.00
2019-02-25T22:40:17.242Z,100.00
2019-02-25T22:42:48.015Z,100.00
2019-02-25T22:45:18.860Z,100.00
2019-02-25T22:47:47.565Z,100.00
2019-02-25T22:50:15.832Z,100.00
2019-02-25T22:52:44.101Z,100.00
2019-02-25T22:55:15.318Z,100.00
2019-02-25T22:57:45.382Z,100.00
2019-02-25T23:00:22.783Z,100.00
2019-02-25T23:02:52.849Z,100.00
2019-02-25T23:05:23.261Z,100.00
2019-02-25T23:07:52.309Z,100.00
2019-02-25T23:10:21.869Z,100.00
2019-02-25T23:12:51.405Z,100.00
2019-02-25T23:15:20.453Z,100.00
2019-02-25T23:17:49.712Z,100.00
2019-02-25T23:20:17.993Z,100.00
2019-02-25T23:22:46.258Z,100.00
2019-02-25T23:25:14.595Z,100.00
2019-02-25T23:27:42.929Z,100.00
2019-02-25T23:30:12.827Z,100.00
2019-02-25T23:32:41.125Z,100.00
2019-02-25T23:35:11.858Z,100.00
2019-02-25T23:37:39.456Z,100.00
2019-02-25T23:40:12.012Z,100.00
2019-02-25T23:42:41.866Z,100.00
2019-02-25T23:45:15.526Z,100.00
2019-02-25T23:47:43.995Z,100.00
2019-02-25T23:50:13.947Z,100.00
2019-02-25T23:52:42.208Z,100.00
2019-02-25T23:55:14.354Z,100.00
2019-02-25T23:57:41.623Z,100.00
